Time;durP1;ratioP1;P1;durP2;ratioP2;P2;SDS_P1;SDS_P2;PMS_P1;PMS_P2;Temp;Humidity;BMP_temperature;BMP_pressure;BME280_temperature;BME280_humidity;BME280_pressure;Samples;Min_cycle;Max_cycle;Signal;HPM_P1;HPM_P2
2022/11/15 00:02:04;;;;;;;;;;;;;;;;;;5003025;28;19924;-56
2022/11/15 00:04:30;;;;;;;;;;;;;;;;;;5004340;28;19925;-55
2022/11/15 00:06:56;;;;;;;;;;;;;;;;;;5005948;28;20004;-55
2022/11/15 00:09:22;;;;;;;;;;;;;;;;;;4997461;28;19924;-55
2022/11/15 00:11:47;;;;;;;;;;;;;;;;;;5005944;28;20008;-55
2022/11/15 00:14:13;;;;;;;;;;;;;;;;;;4999012;28;20836;-56
2022/11/15 00:16:39;;;;;;;;;;;;;;;;;;5009147;28;20020;-55
2022/11/15 00:19:05;;;;;;;;;;;;;;;;;;4998392;28;20012;-56
2022/11/15 00:21:31;;;;;;;;;;;;;;;;;;5014107;28;20339;-55
2022/11/15 00:23:57;;;;;;;;;;;;;;;;;;5021591;28;20147;-55
2022/11/15 00:26:23;;;;;;;;;;;;;;;;;;5002029;28;19964;-55
2022/11/15 00:28:49;;;;;;;;;;;;;;;;;;5020025;28;20402;-55
2022/11/15 00:31:14;;;;;;;;;;;;;;;;;;5003408;28;20394;-56
2022/11/15 00:33:40;;;;;;;;;;;;;;;;;;4992649;28;20879;-55
2022/11/15 00:36:06;;;;;;;;;;;;;;;;;;5008012;28;19921;-55
2022/11/15 00:38:32;;;;;;;;;;;;;;;;;;5004312;28;19929;-56
2022/11/15 00:40:58;;;;;;;;;;;;;;;;;;5004567;28;19936;-55
2022/11/15 00:43:24;;;;;;;;;;;;;;;;;;4991358;28;20264;-56
2022/11/15 00:45:50;;;;;;;;;;;;;;;;;;4994275;28;19964;-55
2022/11/15 00:48:16;;;;;;;;;;;;;;;;;;4991068;28;19925;-56
2022/11/15 00:50:42;;;;;;;;;;;;;;;;;;5008352;28;20394;-55
2022/11/15 00:53:07;;;;;;;;;;;;;;;;;;5008534;28;19924;-55
2022/11/15 00:55:33;;;;;;;;;;;;;;;;;;5000493;28;20024;-55
2022/11/15 00:57:59;;;;;;;;;;;;;;;;;;4992616;28;20027;-55
2022/11/15 01:00:25;;;;;;;;;;;;;;;;;;5004908;28;19936;-56
2022/11/15 01:02:51;;;;;;;;;;;;;;;;;;4995855;28;19964;-55
2022/11/15 01:05:17;;;;;;;;;;;;;;;;;;5000315;28;19917;-55
2022/11/15 01:07:43;;;;;;;;;;;;;;;;;;4986585;28;20090;-55
2022/11/15 01:10:09;;;;;;;;;;;;;;;;;;5003893;28;19925;-55
2022/11/15 01:12:34;;;;;;;;;;;;;;;;;;5006991;28;19949;-55
2022/11/15 01:15:00;;;;;;;;;;;;;;;;;;4999451;28;20281;-55
2022/11/15 01:17:26;;;;;;;;;;;;;;;;;;5005940;28;20011;-56
2022/11/15 01:19:52;;;;;;;;;;;;;;;;;;5014265;28;19936;-55
2022/11/15 01:22:18;;;;;;;;;;;;;;;;;;5020397;28;20396;-56
2022/11/15 01:24:44;;;;;;;;;;;;;;;;;;5018360;28;20024;-55
2022/11/15 01:27:10;;;;;;;;;;;;;;;;;;5013460;28;19920;-55
2022/11/15 01:29:35;;;;;;;;;;;;;;;;;;4994471;28;20054;-55
2022/11/15 01:32:01;;;;;;;;;;;;;;;;;;5009326;28;19922;-57
2022/11/15 01:34:27;;;;;;;;;;;;;;;;;;5006373;28;19922;-55
2022/11/15 01:36:53;;;;;;;;;;;;;;;;;;5015903;28;19983;-56
2022/11/15 01:39:19;;;;;;;;;;;;;;;;;;5016036;28;20494;-56
2022/11/15 01:41:45;;;;;;;;;;;;;;;;;;5012415;28;19920;-55
2022/11/15 01:44:11;;;;;;;;;;;;;;;;;;5011051;28;20553;-55
2022/11/15 01:46:37;;;;;;;;;;;;;;;;;;5006082;28;19925;-55
2022/11/15 01:49:03;;;;;;;;;;;;;;;;;;4994641;28;19925;-55
2022/11/15 01:51:28;;;;;;;;;;;;;;;;;;5007972;28;19948;-56
2022/11/15 01:53:54;;;;;;;;;;;;;;;;;;5004132;28;20010;-55
2022/11/15 01:56:20;;;;;;;;;;;;;;;;;;5005210;28;19921;-55
2022/11/15 01:58:46;;;;;;;;;;;;;;;;;;5003233;28;19925;-56
2022/11/15 02:01:12;;;;;;;;;;;;;;;;;;4992466;28;19936;-56
2022/11/15 02:03:38;;;;;;;;;;;;;;;;;;4999155;28;20063;-56
2022/11/15 02:06:04;;;;;;;;;;;;;;;;;;5028561;28;19957;-55
2022/11/15 02:08:30;;;;;;;;;;;;;;;;;;4989762;28;20382;-56
2022/11/15 02:10:55;;;;;;;;;;;;;;;;;;4987970;28;19921;-55
2022/11/15 02:13:21;;;;;;;;;;;;;;;;;;4997406;28;19983;-56
2022/11/15 02:15:47;;;;;;;;;;;;;;;;;;5011584;28;19956;-55
2022/11/15 02:18:13;;;;;;;;;;;;;;;;;;5004724;28;19929;-55
2022/11/15 02:20:39;;;;;;;;;;;;;;;;;;5006251;28;19921;-55
2022/11/15 02:23:05;;;;;;;;;;;;;;;;;;5002244;28;19927;-55
2022/11/15 02:25:31;;;;;;;;;;;;;;;;;;5008611;28;19925;-55
2022/11/15 02:27:57;;;;;;;;;;;;;;;;;;5007674;28;19923;-55
2022/11/15 02:30:23;;;;;;;;;;;;;;;;;;4997233;28;20602;-56
2022/11/15 02:32:49;;;;;;;;;;;;;;;;;;5007905;28;19922;-56
2022/11/15 02:35:15;;;;;;;;;;;;;;;;;;5010329;28;19921;-55
2022/11/15 02:37:41;;;;;;;;;;;;;;;;;;5011739;28;19929;-54
2022/11/15 02:40:06;;;;;;;;;;;;;;;;;;5011449;28;19974;-54
2022/11/15 02:45:17;;;;;;;;;;;;;;;;;;5009684;28;19924;-54
2022/11/15 02:47:43;;;;;;;;;;;;;;;;;;4992848;28;19929;-52
2022/11/15 02:50:08;;;;;;;;;;;;;;;;;;5009130;28;19925;-53
2022/11/15 02:52:34;;;;;;;;;;;;;;;;;;4994619;28;19940;-55
2022/11/15 02:55:00;;;;;;;;;;;;;;;;;;4997349;28;19932;-54
2022/11/15 02:57:26;;;;;;;;;;;;;;;;;;5009178;28;19920;-53
2022/11/15 02:59:52;;;;;;;;;;;;;;;;;;4978394;28;20404;-55
2022/11/15 03:02:18;;;;;;;;;;;;;;;;;;4984102;28;19925;-54
2022/11/15 03:04:44;;;;;;;;;;;;;;;;;;5015546;28;19917;-53
2022/11/15 03:07:10;;;;;;;;;;;;;;;;;;5006948;28;19921;-53
2022/11/15 03:09:35;;;;;;;;;;;;;;;;;;4996706;28;19925;-54
2022/11/15 03:12:01;;;;;;;;;;;;;;;;;;4966778;28;20021;-53
2022/11/15 03:14:27;;;;;;;;;;;;;;;;;;4999655;28;20012;-55
2022/11/15 03:16:53;;;;;;;;;;;;;;;;;;4998484;28;19929;-54
2022/11/15 03:19:19;;;;;;;;;;;;;;;;;;4997089;28;20154;-54
2022/11/15 03:21:45;;;;;;;;;;;;;;;;;;4987900;28;20397;-53
2022/11/15 03:24:11;;;;;;;;;;;;;;;;;;5004704;28;19921;-53
2022/11/15 03:26:36;;;;;;;;;;;;;;;;;;4991041;28;19924;-53
2022/11/15 03:29:02;;;;;;;;;;;;;;;;;;4999902;28;19917;-54
2022/11/15 03:31:47;;;;;;;;;;;;;;;;;;5001439;28;19992;-55
2022/11/15 03:34:13;;;;;;;;;;;;;;;;;;4995612;28;19921;-53
2022/11/15 03:36:38;;;;;;;;;;;;;;;;;;4997421;28;20298;-53
2022/11/15 03:39:04;;;;;;;;;;;;;;;;;;5003831;28;19924;-54
2022/11/15 03:41:30;;;;;;;;;;;;;;;;;;4994835;28;20739;-54
2022/11/15 03:43:56;;;;;;;;;;;;;;;;;;5014306;28;19921;-54
2022/11/15 03:46:22;;;;;;;;;;;;;;;;;;5011017;28;19917;-53
2022/11/15 03:48:48;;;;;;;;;;;;;;;;;;5011453;28;19926;-53
2022/11/15 03:51:14;;;;;;;;;;;;;;;;;;5010558;28;20032;-54
2022/11/15 03:53:39;;;;;;;;;;;;;;;;;;5008546;28;19917;-54
2022/11/15 03:56:05;;;;;;;;;;;;;;;;;;5008237;28;20399;-54
2022/11/15 03:58:31;;;;;;;;;;;;;;;;;;5004360;28;19925;-55
2022/11/15 04:00:59;;;;;;;;;;;;;;;;;;4985023;28;19936;-54
2022/11/15 04:03:25;;;;;;;;;;;;;;;;;;4973623;28;19979;-54
2022/11/15 04:05:50;;;;;;;;;;;;;;;;;;4990708;28;20927;-53
2022/11/15 04:08:16;;;;;;;;;;;;;;;;;;5000572;28;19917;-55
2022/11/15 04:10:42;;;;;;;;;;;;;;;;;;5003443;28;19921;-54
2022/11/15 04:13:08;;;;;;;;;;;;;;;;;;4998977;28;20003;-55
2022/11/15 04:15:34;;;;;;;;;;;;;;;;;;4994350;28;19936;-54
2022/11/15 04:18:00;;;;;;;;;;;;;;;;;;4993702;28;20404;-53
2022/11/15 04:25:55;;;;;;;;;;;;;;;;;;5012622;28;20111;-54
2022/11/15 04:28:21;;;;;;;;;;;;;;;;;;4982013;28;20057;-54
2022/11/15 04:30:47;;;;;;;;;;;;;;;;;;4985230;28;19925;-55
2022/11/15 04:33:13;;;;;;;;;;;;;;;;;;4981921;28;19947;-53
2022/11/15 04:35:38;;;;;;;;;;;;;;;;;;5001602;28;19932;-55
2022/11/15 04:38:04;;;;;;;;;;;;;;;;;;4990361;28;20364;-55
2022/11/15 04:40:30;;;;;;;;;;;;;;;;;;5003639;28;19968;-55
2022/11/15 04:42:56;;;;;;;;;;;;;;;;;;4994342;28;20538;-56
2022/11/15 04:45:22;;;;;;;;;;;;;;;;;;4997175;28;19925;-55
2022/11/15 04:47:48;;;;;;;;;;;;;;;;;;4986209;28;19932;-55
2022/11/15 04:50:14;;;;;;;;;;;;;;;;;;4996187;28;19921;-56
2022/11/15 04:52:40;;;;;;;;;;;;;;;;;;4999161;28;19922;-55
2022/11/15 04:55:05;;;;;;;;;;;;;;;;;;4997891;28;19944;-55
2022/11/15 04:57:31;;;;;;;;;;;;;;;;;;5001161;28;20289;-57
2022/11/15 04:59:57;;;;;;;;;;;;;;;;;;4985430;28;20337;-55
2022/11/15 05:02:23;;;;;;;;;;;;;;;;;;4979578;28;19921;-55
2022/11/15 05:04:49;;;;;;;;;;;;;;;;;;4980439;28;19921;-55
2022/11/15 05:07:15;;;;;;;;;;;;;;;;;;5007104;28;19918;-55
2022/11/15 05:09:41;;;;;;;;;;;;;;;;;;4991777;28;19917;-55
2022/11/15 05:12:07;;;;;;;;;;;;;;;;;;4996465;28;19932;-55
2022/11/15 05:14:32;;;;;;;;;;;;;;;;;;4995435;28;20287;-55
2022/11/15 05:16:58;;;;;;;;;;;;;;;;;;5010707;28;19987;-55
2022/11/15 05:19:24;;;;;;;;;;;;;;;;;;4997147;28;19921;-55
2022/11/15 05:21:50;;;;;;;;;;;;;;;;;;5001499;28;19920;-56
2022/11/15 05:24:16;;;;;;;;;;;;;;;;;;4987823;28;19983;-55
2022/11/15 05:26:42;;;;;;;;;;;;;;;;;;4988245;28;19941;-56
2022/11/15 05:29:08;;;;;;;;;;;;;;;;;;4999797;28;19979;-55
2022/11/15 05:31:34;;;;;;;;;;;;;;;;;;5002252;28;19924;-55
2022/11/15 05:33:59;;;;;;;;;;;;;;;;;;5001433;28;20302;-55
2022/11/15 05:36:26;;;;;;;;;;;;;;;;;;5003988;28;19926;-55
2022/11/15 05:38:51;;;;;;;;;;;;;;;;;;5000798;28;19975;-55
2022/11/15 05:41:17;;;;;;;;;;;;;;;;;;4994985;28;19929;-55
2022/11/15 05:43:43;;;;;;;;;;;;;;;;;;5004161;28;19976;-56
2022/11/15 05:46:09;;;;;;;;;;;;;;;;;;5004702;28;19965;-55
2022/11/15 05:48:35;;;;;;;;;;;;;;;;;;5013192;28;19932;-55
2022/11/15 05:51:01;;;;;;;;;;;;;;;;;;5010224;28;20032;-56
2022/11/15 05:53:27;;;;;;;;;;;;;;;;;;5005841;28;20365;-55
2022/11/15 05:55:52;;;;;;;;;;;;;;;;;;5004139;28;20044;-56
2022/11/15 05:58:18;;;;;;;;;;;;;;;;;;4997216;28;19934;-55
2022/11/15 06:00:44;;;;;;;;;;;;;;;;;;5001070;28;19968;-55
2022/11/15 06:03:10;;;;;;;;;;;;;;;;;;4999328;28;19925;-55
2022/11/15 06:05:36;;;;;;;;;;;;;;;;;;5007732;28;20413;-55
2022/11/15 06:08:02;;;;;;;;;;;;;;;;;;4994326;28;19927;-55
2022/11/15 06:10:28;;;;;;;;;;;;;;;;;;5003808;28;19925;-55
2022/11/15 06:12:53;;;;;;;;;;;;;;;;;;5001860;28;19967;-55
2022/11/15 06:15:19;;;;;;;;;;;;;;;;;;5008858;28;19924;-55
2022/11/15 06:17:45;;;;;;;;;;;;;;;;;;5001331;28;19943;-53
2022/11/15 06:20:11;;;;;;;;;;;;;;;;;;4994526;28;19921;-55
2022/11/15 06:22:37;;;;;;;;;;;;;;;;;;4969436;28;19922;-52
2022/11/15 06:25:03;;;;;;;;;;;;;;;;;;4997457;28;19928;-53
2022/11/15 06:27:29;;;;;;;;;;;;;;;;;;4960739;28;19934;-53
2022/11/15 06:29:55;;;;;;;;;;;;;;;;;;4961053;28;20553;-51
2022/11/15 06:32:20;;;;;;;;;;;;;;;;;;4984660;28;20542;-53
2022/11/15 06:34:46;;;;;;;;;;;;;;;;;;4976593;28;19926;-53
2022/11/15 06:37:12;;;;;;;;;;;;;;;;;;4987159;28;19999;-52
2022/11/15 06:39:38;;;;;;;;;;;;;;;;;;4978641;28;19929;-52
2022/11/15 06:42:04;;;;;;;;;;;;;;;;;;5009667;28;19995;-50
2022/11/15 06:44:30;;;;;;;;;;;;;;;;;;4999651;28;20398;-51
2022/11/15 06:46:56;;;;;;;;;;;;;;;;;;5011509;28;19925;-51
2022/11/15 06:49:21;;;;;;;;;;;;;;;;;;5008735;28;20816;-53
2022/11/15 06:51:47;;;;;;;;;;;;;;;;;;4988392;28;19932;-52
2022/11/15 06:54:13;;;;;;;;;;;;;;;;;;4991862;28;19930;-52
2022/11/15 06:56:39;;;;;;;;;;;;;;;;;;5018175;28;20496;-52
2022/11/15 06:59:05;;;;;;;;;;;;;;;;;;5005608;28;19924;-52
2022/11/15 07:01:31;;;;;;;;;;;;;;;;;;5014910;28;19927;-52
2022/11/15 07:03:57;;;;;;;;;;;;;;;;;;5000441;28;19928;-53
2022/11/15 07:06:22;;;;;;;;;;;;;;;;;;4998241;28;20307;-53
2022/11/15 07:08:48;;;;;;;;;;;;;;;;;;4998733;28;19925;-52
2022/11/15 07:11:14;;;;;;;;;;;;;;;;;;4997996;28;19922;-53
2022/11/15 07:13:40;;;;;;;;;;;;;;;;;;4984132;28;19925;-52
2022/11/15 07:16:06;;;;;;;;;;;;;;;;;;4973785;28;20430;-51
2022/11/15 07:18:32;;;;;;;;;;;;;;;;;;4964981;28;19928;-52
2022/11/15 07:20:58;;;;;;;;;;;;;;;;;;4994094;28;19989;-52
2022/11/15 07:23:24;;;;;;;;;;;;;;;;;;5006149;28;20616;-52
2022/11/15 07:25:49;;;;;;;;;;;;;;;;;;4997007;28;20008;-52
2022/11/15 07:28:15;;;;;;;;;;;;;;;;;;5007021;28;19932;-51
2022/11/15 07:30:41;;;;;;;;;;;;;;;;;;4976637;28;20005;-50
2022/11/15 07:33:07;;;;;;;;;;;;;;;;;;5019468;28;20298;-52
2022/11/15 07:35:33;;;;;;;;;;;;;;;;;;5018772;28;19924;-52
2022/11/15 07:37:59;;;;;;;;;;;;;;;;;;4995472;28;19991;-53
2022/11/15 07:40:25;;;;;;;;;;;;;;;;;;4993974;28;20457;-53
2022/11/15 07:42:54;;;;;;;;;;;;;;;;;;5005293;28;19924;-52
2022/11/15 07:45:20;;;;;;;;;;;;;;;;;;5016627;28;19924;-53
2022/11/15 07:47:45;;;;;;;;;;;;;;;;;;5020949;28;19920;-53
2022/11/15 07:50:11;;;;;;;;;;;;;;;;;;5005679;28;20410;-52
2022/11/15 07:52:37;;;;;;;;;;;;;;;;;;5001239;28;19922;-52
2022/11/15 07:55:03;;;;;;;;;;;;;;;;;;5011086;28;19927;-52
2022/11/15 07:57:29;;;;;;;;;;;;;;;;;;5017664;28;19925;-52
2022/11/15 07:59:55;;;;;;;;;;;;;;;;;;5008932;28;20418;-51
2022/11/15 08:02:21;;;;;;;;;;;;;;;;;;5007057;28;19949;-51
2022/11/15 08:04:46;;;;;;;;;;;;;;;;;;4999724;28;19924;-52
2022/11/15 08:07:12;;;;;;;;;;;;;;;;;;4986622;28;19952;-53
2022/11/15 08:09:38;;;;;;;;;;;;;;;;;;5012328;28;19925;-52
2022/11/15 08:12:04;;;;;;;;;;;;;;;;;;4968229;28;19932;-52
2022/11/15 08:14:30;;;;;;;;;;;;;;;;;;4999342;28;19918;-51
2022/11/15 08:16:56;;;;;;;;;;;;;;;;;;5010169;28;19929;-53
2022/11/15 08:19:21;;;;;;;;;;;;;;;;;;5018861;28;19933;-51
2022/11/15 08:21:48;;;;;;;;;;;;;;;;;;4980817;28;19923;-52
2022/11/15 08:24:14;;;;;;;;;;;;;;;;;;4999320;28;20014;-53
2022/11/15 08:26:39;;;;;;;;;;;;;;;;;;4997988;28;19921;-50
2022/11/15 08:29:06;;;;;;;;;;;;;;;;;;5007096;28;19917;-54
2022/11/15 08:31:33;;;;;;;;;;;;;;;;;;5021387;28;20343;-51
2022/11/15 08:33:59;;;;;;;;;;;;;;;;;;5006880;28;19924;-52
2022/11/15 08:36:24;;;;;;;;;;;;;;;;;;5010205;28;20312;-52
2022/11/15 08:38:50;;;;;;;;;;;;;;;;;;5008287;28;19925;-51
2022/11/15 08:41:16;;;;;;;;;;;;;;;;;;4993940;28;19983;-53
2022/11/15 08:43:42;;;;;;;;;;;;;;;;;;5010526;28;20374;-53
2022/11/15 08:46:08;;;;;;;;;;;;;;;;;;5015715;28;19922;-52
2022/11/15 08:48:34;;;;;;;;;;;;;;;;;;5011523;28;19973;-52
2022/11/15 08:51:00;;;;;;;;;;;;;;;;;;5009198;28;19925;-52
2022/11/15 08:53:25;;;;;;;;;;;;;;;;;;5010972;28;19995;-53
2022/11/15 08:55:51;;;;;;;;;;;;;;;;;;5005668;28;20348;-51
2022/11/15 08:58:17;;;;;;;;;;;;;;;;;;5014735;28;19917;-51
2022/11/15 09:00:43;;;;;;;;;;;;;;;;;;5019884;28;20301;-53
2022/11/15 09:03:09;;;;;;;;;;;;;;;;;;5015730;28;19926;-53
2022/11/15 09:05:35;;;;;;;;;;;;;;;;;;5014441;28;19921;-51
2022/11/15 09:08:01;;;;;;;;;;;;;;;;;;5015889;28;20444;-53
2022/11/15 09:10:26;;;;;;;;;;;;;;;;;;4978238;28;19926;-51
2022/11/15 09:12:52;;;;;;;;;;;;;;;;;;4984979;28;19922;-51
2022/11/15 09:15:19;;;;;;;;;;;;;;;;;;5012425;28;19924;-52
2022/11/15 09:17:45;;;;;;;;;;;;;;;;;;5014917;28;19917;-51
2022/11/15 09:20:11;;;;;;;;;;;;;;;;;;5005587;28;20405;-51
2022/11/15 09:22:38;;;;;;;;;;;;;;;;;;5026231;28;19921;-51
2022/11/15 09:25:04;;;;;;;;;;;;;;;;;;5004531;28;19917;-53
2022/11/15 09:27:30;;;;;;;;;;;;;;;;;;5018997;28;19928;-51
2022/11/15 09:29:56;;;;;;;;;;;;;;;;;;4989239;28;19930;-51
2022/11/15 09:32:25;;;;;;;;;;;;;;;;;;4991658;28;19918;-52
2022/11/15 09:34:50;;;;;;;;;;;;;;;;;;5014141;28;19925;-51
2022/11/15 09:37:16;;;;;;;;;;;;;;;;;;5003923;28;19943;-53
2022/11/15 09:39:42;;;;;;;;;;;;;;;;;;4998479;28;19930;-51
2022/11/15 09:42:09;;;;;;;;;;;;;;;;;;5009700;28;19997;-51
2022/11/15 09:44:35;;;;;;;;;;;;;;;;;;5018646;28;19933;-52
2022/11/15 09:47:01;;;;;;;;;;;;;;;;;;5014275;28;19920;-54
2022/11/15 09:49:26;;;;;;;;;;;;;;;;;;5008860;28;19922;-53
2022/11/15 09:51:52;;;;;;;;;;;;;;;;;;5012809;28;20373;-54
2022/11/15 09:54:18;;;;;;;;;;;;;;;;;;5001680;28;19950;-53
2022/11/15 09:56:44;;;;;;;;;;;;;;;;;;5008617;28;19917;-53
2022/11/15 09:59:10;;;;;;;;;;;;;;;;;;4998588;28;19969;-55
2022/11/15 10:01:36;;;;;;;;;;;;;;;;;;5021633;28;20064;-53
2022/11/15 10:04:02;;;;;;;;;;;;;;;;;;5019275;28;19924;-53
2022/11/15 10:06:28;;;;;;;;;;;;;;;;;;5012864;28;20390;-52
2022/11/15 10:08:53;;;;;;;;;;;;;;;;;;4993640;28;19925;-54
2022/11/15 10:11:19;;;;;;;;;;;;;;;;;;5009436;28;19921;-53
2022/11/15 10:13:45;;;;;;;;;;;;;;;;;;4993815;28;19929;-54
2022/11/15 10:16:11;;;;;;;;;;;;;;;;;;5022422;28;20283;-53
2022/11/15 10:18:37;;;;;;;;;;;;;;;;;;4998890;28;19925;-53
2022/11/15 10:21:03;;;;;;;;;;;;;;;;;;4996314;28;19968;-55
2022/11/15 10:23:29;;;;;;;;;;;;;;;;;;5009188;28;19928;-54
2022/11/15 10:25:55;;;;;;;;;;;;;;;;;;5011722;28;19982;-53
2022/11/15 10:28:21;;;;;;;;;;;;;;;;;;5019846;28;19917;-54
2022/11/15 10:30:47;;;;;;;;;;;;;;;;;;5015512;28;20003;-53
2022/11/15 10:33:12;;;;;;;;;;;;;;;;;;5000025;28;19917;-54
2022/11/15 10:35:38;;;;;;;;;;;;;;;;;;5002060;28;19925;-52
2022/11/15 10:38:04;;;;;;;;;;;;;;;;;;5003335;28;19930;-53
2022/11/15 10:40:30;;;;;;;;;;;;;;;;;;5012851;28;20459;-54
2022/11/15 10:42:56;;;;;;;;;;;;;;;;;;5013473;28;19925;-52
2022/11/15 10:45:22;;;;;;;;;;;;;;;;;;5010500;28;19963;-54
2022/11/15 10:47:48;;;;;;;;;;;;;;;;;;5005148;28;19926;-52
2022/11/15 10:50:13;;;;;;;;;;;;;;;;;;4992392;28;20251;-53
2022/11/15 10:52:39;;;;;;;;;;;;;;;;;;5012614;28;19925;-53
2022/11/15 10:55:05;;;;;;;;;;;;;;;;;;4997459;28;19982;-53
2022/11/15 10:57:31;;;;;;;;;;;;;;;;;;5006109;28;20397;-53
2022/11/15 10:59:57;;;;;;;;;;;;;;;;;;5007099;28;19939;-54
2022/11/15 11:02:23;;;;;;;;;;;;;;;;;;5007751;28;19921;-53
2022/11/15 11:04:49;;;;;;;;;;;;;;;;;;4998936;28;20023;-53
2022/11/15 11:07:15;;;;;;;;;;;;;;;;;;5003385;28;20489;-55
2022/11/15 11:09:42;;;;;;;;;;;;;;;;;;4987361;28;21131;-52
2022/11/15 11:12:08;;;;;;;;;;;;;;;;;;4968751;28;20468;-54
2022/11/15 11:14:34;;;;;;;;;;;;;;;;;;4996816;28;25532;-53
2022/11/15 11:16:59;;;;;;;;;;;;;;;;;;4998310;28;20378;-55
2022/11/15 11:19:25;;;;;;;;;;;;;;;;;;4999910;28;20737;-53
2022/11/15 11:21:51;;;;;;;;;;;;;;;;;;4998013;28;19922;-51
2022/11/15 11:24:17;;;;;;;;;;;;;;;;;;5003636;28;19921;-52
2022/11/15 11:26:43;;;;;;;;;;;;;;;;;;4995095;28;19922;-54
2022/11/15 11:29:09;;;;;;;;;;;;;;;;;;4991696;28;19974;-52
2022/11/15 11:31:35;;;;;;;;;;;;;;;;;;4998399;28;20020;-51
2022/11/15 11:34:01;;;;;;;;;;;;;;;;;;4974466;28;19925;-53
2022/11/15 11:36:26;;;;;;;;;;;;;;;;;;5008165;28;19931;-52
2022/11/15 11:38:52;;;;;;;;;;;;;;;;;;4978128;28;19921;-52
2022/11/15 11:41:20;;;;;;;;;;;;;;;;;;5002756;28;21417;-51
2022/11/15 11:43:46;;;;;;;;;;;;;;;;;;5002786;28;20024;-53
2022/11/15 11:46:12;;;;;;;;;;;;;;;;;;4970327;28;20463;-52
2022/11/15 11:48:37;;;;;;;;;;;;;;;;;;4988217;28;19989;-52
2022/11/15 11:51:03;;;;;;;;;;;;;;;;;;5004124;28;19933;-51
2022/11/15 11:53:29;;;;;;;;;;;;;;;;;;5013045;28;19916;-52
2022/11/15 11:55:55;;;;;;;;;;;;;;;;;;5004760;28;20296;-56
2022/11/15 11:58:21;;;;;;;;;;;;;;;;;;5004195;28;20590;-53
2022/11/15 12:00:47;;;;;;;;;;;;;;;;;;4983070;28;20020;-52
2022/11/15 12:03:13;;;;;;;;;;;;;;;;;;4988501;28;20295;-53
2022/11/15 12:05:39;;;;;;;;;;;;;;;;;;4972820;28;19981;-52
2022/11/15 12:08:05;;;;;;;;;;;;;;;;;;4997160;28;19917;-53
2022/11/15 12:10:31;;;;;;;;;;;;;;;;;;4978933;28;19967;-53
2022/11/15 12:12:57;;;;;;;;;;;;;;;;;;5008120;28;19972;-53
2022/11/15 12:15:22;;;;;;;;;;;;;;;;;;4997780;28;20205;-54
2022/11/15 12:17:48;;;;;;;;;;;;;;;;;;4998564;28;19952;-54
2022/11/15 12:20:14;;;;;;;;;;;;;;;;;;5008823;28;19922;-53
2022/11/15 12:22:40;;;;;;;;;;;;;;;;;;5008615;28;19925;-53
2022/11/15 12:25:06;;;;;;;;;;;;;;;;;;5011951;28;19917;-53
2022/11/15 12:27:32;;;;;;;;;;;;;;;;;;4988450;28;19971;-53
2022/11/15 12:29:58;;;;;;;;;;;;;;;;;;5002158;28;20286;-53
2022/11/15 12:32:23;;;;;;;;;;;;;;;;;;5007191;28;20056;-52
2022/11/15 12:34:49;;;;;;;;;;;;;;;;;;5002728;28;19922;-54
2022/11/15 12:37:15;;;;;;;;;;;;;;;;;;4988626;28;20348;-53
2022/11/15 12:39:41;;;;;;;;;;;;;;;;;;4998895;28;19929;-52
2022/11/15 12:42:07;;;;;;;;;;;;;;;;;;4982438;28;19931;-53
2022/11/15 12:44:33;;;;;;;;;;;;;;;;;;5001815;28;20382;-52
2022/11/15 12:46:59;;;;;;;;;;;;;;;;;;4993070;28;20099;-52
2022/11/15 12:49:25;;;;;;;;;;;;;;;;;;5005131;28;19924;-52
2022/11/15 12:51:52;;;;;;;;;;;;;;;;;;4958537;28;21372;-53
2022/11/15 12:54:17;;;;;;;;;;;;;;;;;;4993656;28;19926;-52
2022/11/15 12:56:43;;;;;;;;;;;;;;;;;;4975453;28;19925;-53
2022/11/15 12:59:09;;;;;;;;;;;;;;;;;;4987978;28;19953;-52
2022/11/15 13:01:35;;;;;;;;;;;;;;;;;;5009162;28;19948;-53
2022/11/15 13:04:01;;;;;;;;;;;;;;;;;;4990193;28;19926;-53
2022/11/15 13:06:27;;;;;;;;;;;;;;;;;;4997374;28;19936;-52
2022/11/15 13:08:53;;;;;;;;;;;;;;;;;;4988478;28;19924;-52
2022/11/15 13:11:19;;;;;;;;;;;;;;;;;;4997365;28;19934;-52
2022/11/15 13:13:44;;;;;;;;;;;;;;;;;;4994507;28;19939;-54
2022/11/15 13:16:10;;;;;;;;;;;;;;;;;;4969405;28;19932;-52
2022/11/15 13:18:36;;;;;;;;;;;;;;;;;;4995828;28;19945;-53
2022/11/15 13:22:50;;;;;;;;;;;;;;;;;;4967899;28;20259;-53
2022/11/15 13:23:48;;;;;;;;;;;;;;;;;;4998548;28;20260;-53
2022/11/15 13:26:16;;;;;;;;;;;;;;;;;;4992077;28;19932;-53
2022/11/15 13:28:42;;;;;;;;;;;;;;;;;;5014755;28;19917;-53
2022/11/15 13:31:08;;;;;;;;;;;;;;;;;;4990172;28;19940;-53
2022/11/15 13:33:34;;;;;;;;;;;;;;;;;;4946672;28;20013;-52
2022/11/15 13:36:00;;;;;;;;;;;;;;;;;;4992925;28;19929;-53
2022/11/15 13:38:26;;;;;;;;;;;;;;;;;;5011908;28;20611;-52
2022/11/15 13:40:52;;;;;;;;;;;;;;;;;;5003729;28;19925;-52
2022/11/15 13:43:18;;;;;;;;;;;;;;;;;;5013849;28;19925;-52
2022/11/15 13:45:44;;;;;;;;;;;;;;;;;;5006326;28;19932;-52
2022/11/15 13:48:10;;;;;;;;;;;;;;;;;;4983279;28;20374;-53
2022/11/15 13:50:36;;;;;;;;;;;;;;;;;;4988384;28;20415;-54
2022/11/15 13:53:02;;;;;;;;;;;;;;;;;;4987612;28;19995;-54
2022/11/15 13:55:28;;;;;;;;;;;;;;;;;;4976095;28;19925;-53
2022/11/15 13:57:54;;;;;;;;;;;;;;;;;;5005630;28;19917;-53
2022/11/15 14:00:20;;;;;;;;;;;;;;;;;;4998143;28;25635;-54
2022/11/15 14:02:45;;;;;;;;;;;;;;;;;;4997854;28;20019;-53
2022/11/15 14:05:11;;;;;;;;;;;;;;;;;;4981423;28;19932;-53
2022/11/15 14:07:38;;;;;;;;;;;;;;;;;;4967116;28;19929;-53
2022/11/15 14:10:04;;;;;;;;;;;;;;;;;;4981611;28;20304;-53
2022/11/15 14:12:30;;;;;;;;;;;;;;;;;;4990707;28;19928;-53
2022/11/15 14:14:56;;;;;;;;;;;;;;;;;;4990590;28;20279;-54
2022/11/15 14:17:23;;;;;;;;;;;;;;;;;;4961467;28;20059;-53
2022/11/15 14:19:49;;;;;;;;;;;;;;;;;;4995803;28;20265;-53
2022/11/15 14:22:15;;;;;;;;;;;;;;;;;;4994597;28;19927;-54
2022/11/15 14:24:41;;;;;;;;;;;;;;;;;;4990889;28;19985;-54
2022/11/15 14:27:06;;;;;;;;;;;;;;;;;;4979944;28;20001;-54
2022/11/15 14:29:32;;;;;;;;;;;;;;;;;;4989628;28;20477;-53
2022/11/15 14:31:58;;;;;;;;;;;;;;;;;;4998957;28;19920;-53
2022/11/15 14:34:24;;;;;;;;;;;;;;;;;;4989182;28;19928;-53
2022/11/15 14:36:50;;;;;;;;;;;;;;;;;;4993238;28;20175;-53
2022/11/15 14:39:16;;;;;;;;;;;;;;;;;;4997908;28;19925;-55
2022/11/15 14:41:42;;;;;;;;;;;;;;;;;;4974084;28;19930;-55
2022/11/15 14:44:07;;;;;;;;;;;;;;;;;;4976427;28;21037;-56
2022/11/15 14:46:33;;;;;;;;;;;;;;;;;;4979021;28;19928;-56
2022/11/15 14:48:59;;;;;;;;;;;;;;;;;;4985639;28;19917;-55
2022/11/15 14:51:26;;;;;;;;;;;;;;;;;;4983969;28;20681;-56
2022/11/15 14:53:52;;;;;;;;;;;;;;;;;;4986453;28;20286;-55
2022/11/15 14:56:18;;;;;;;;;;;;;;;;;;5005470;28;19999;-55
2022/11/15 14:58:44;;;;;;;;;;;;;;;;;;4999726;28;20343;-55
2022/11/15 15:01:10;;;;;;;;;;;;;;;;;;4984954;28;20330;-54
2022/11/15 15:03:35;;;;;;;;;;;;;;;;;;4996916;28;19968;-54
2022/11/15 15:06:01;;;;;;;;;;;;;;;;;;4962959;28;20093;-55
2022/11/15 15:08:27;;;;;;;;;;;;;;;;;;4985184;28;20021;-56
2022/11/15 15:10:53;;;;;;;;;;;;;;;;;;4967711;28;19930;-55
2022/11/15 15:13:19;;;;;;;;;;;;;;;;;;4965742;28;20274;-56
2022/11/15 15:15:45;;;;;;;;;;;;;;;;;;4966456;28;19929;-56
2022/11/15 15:18:11;;;;;;;;;;;;;;;;;;4999354;28;19921;-55
2022/11/15 15:20:37;;;;;;;;;;;;;;;;;;4969889;28;21243;-56
2022/11/15 15:23:02;;;;;;;;;;;;;;;;;;4950475;28;20251;-56
2022/11/15 15:25:28;;;;;;;;;;;;;;;;;;4962510;28;19981;-55
2022/11/15 15:27:54;;;;;;;;;;;;;;;;;;4970408;28;19926;-56
2022/11/15 15:30:20;;;;;;;;;;;;;;;;;;4958235;28;19934;-55
2022/11/15 15:32:46;;;;;;;;;;;;;;;;;;4972419;28;19926;-55
2022/11/15 15:35:12;;;;;;;;;;;;;;;;;;4984093;28;19925;-56
2022/11/15 15:37:38;;;;;;;;;;;;;;;;;;4964298;28;19935;-56
2022/11/15 15:40:04;;;;;;;;;;;;;;;;;;4977830;28;20409;-55
2022/11/15 15:42:31;;;;;;;;;;;;;;;;;;4970470;28;20386;-55
2022/11/15 15:44:57;;;;;;;;;;;;;;;;;;4981278;28;19979;-56
2022/11/15 15:47:23;;;;;;;;;;;;;;;;;;5000452;28;19967;-55
2022/11/15 15:49:48;;;;;;;;;;;;;;;;;;4981182;28;19925;-54
2022/11/15 15:52:14;;;;;;;;;;;;;;;;;;4965196;28;22240;-56
2022/11/15 15:54:40;;;;;;;;;;;;;;;;;;4958159;28;21307;-54
2022/11/15 15:57:06;;;;;;;;;;;;;;;;;;4998331;28;19933;-54
2022/11/15 15:59:32;;;;;;;;;;;;;;;;;;4985798;28;20000;-55
2022/11/15 16:01:58;;;;;;;;;;;;;;;;;;4971486;28;19947;-53
2022/11/15 16:04:24;;;;;;;;;;;;;;;;;;5000806;28;19949;-53
2022/11/15 16:06:52;;;;;;;;;;;;;;;;;;5004392;28;19917;-53
2022/11/15 16:09:18;;;;;;;;;;;;;;;;;;5000569;28;19929;-53
2022/11/15 16:11:43;;;;;;;;;;;;;;;;;;4998462;28;19924;-54
2022/11/15 16:14:09;;;;;;;;;;;;;;;;;;4965993;28;19980;-52
2022/11/15 16:16:35;;;;;;;;;;;;;;;;;;4978771;28;19960;-54
2022/11/15 16:19:01;;;;;;;;;;;;;;;;;;4992260;28;21175;-55
2022/11/15 16:21:27;;;;;;;;;;;;;;;;;;4969732;28;20023;-54
2022/11/15 16:23:53;;;;;;;;;;;;;;;;;;4966590;28;19925;-53
2022/11/15 16:26:19;;;;;;;;;;;;;;;;;;4971516;28;20461;-52
2022/11/15 16:28:44;;;;;;;;;;;;;;;;;;4984445;28;20580;-53
2022/11/15 16:31:10;;;;;;;;;;;;;;;;;;4985935;28;19925;-53
2022/11/15 16:33:36;;;;;;;;;;;;;;;;;;4963879;28;19964;-53
2022/11/15 16:36:02;;;;;;;;;;;;;;;;;;4983579;28;20012;-53
2022/11/15 16:38:28;;;;;;;;;;;;;;;;;;4984966;28;20022;-53
2022/11/15 16:40:54;;;;;;;;;;;;;;;;;;4995510;28;19929;-55
2022/11/15 16:43:20;;;;;;;;;;;;;;;;;;4988795;28;19928;-54
2022/11/15 16:45:45;;;;;;;;;;;;;;;;;;4960746;28;22067;-54